Portada
METAR-TAF:

METAR-TAF

Aeroports :

Okayama, Japó

latitud: 34-45N, longitud: 133-51E, altitud: 241 m

Observació

L'informe es va fer fa 7 hores i 10 minuts, a les 12:00 UTC
Vent 2 kt amb direcció variable
Temperatura 16°C
Humitat 59%
Pressió 1012 hPa
Visibilitat 10 km o més
Escasses núvols a una alçada de 3000 ft

METAR: RJOB 181200Z VRB02KT 9999 FEW030 16/08 Q1012

Hora: 04:10 (19:10 UTC)

Pronòstic

L'informe es va fer fa 2 hores i 2 minuts, a les 17:08 UTC
Pronòstic vàlid del 18 a les 18 UTC al 20 a les 00 UTC
Vent 4 kt del Oest
Visibilitat 10 km o més
Escasses núvols a una alçada de 3000 ft
Evolucionant progressivament
l' 19 a les 03 UTC al 19 a les 05 UTC
Vent 6 kt del Nord

TAF: RJOB 181708Z 1818/2000 26004KT 9999 FEW030 BECMG 1903/1905 36006KT

Observacions i pronòstics meteorològics de més de 4000 aeroports (METAR i TAF).

Les estacions disponibles són els punts grocs i vermells al mapa.

Posi el ratolí al punt desitjat per veure el nom de l'estació.

Feu clic per veure les observacions i els pronòstics meteorològics.

Per canviar el mapa: feu clic els botons verds amb una creu de color negre per apropar; al botó verd amb un guió per allunyar la imatge; o en les fletxes verdes per a mapes adjacents.


METAR-TAF: